Scotby, United Kingdom
Current Conditions -  °F | °C
As of 12:50 PM on Saturday 20 Dec 2014 (Local Time) from EGOM Reporting Station
Scattered Clouds Scattered Clouds  
Wind Chill: 32°   Ceiling: Unl
Heat Index: 41°   Visibility: 6mi
Dew Point: 37°   Wind: 20mph
Humidity: 87%   Direction: 270°W
Pressure: 30.09"   Gusts: NA
Location:  54.89°N, 2.87°W
Report Text: EGOM 201250Z AUTO 27017KT 9999 SCT031/// SCT036/// 05/03 Q1019
Loading
Personal Weather Stations






























Interactive Weather Map New forecast layout! Learn more

10-Day Weather Forecast

Advertisements
Track Severe Weather on mobile